sensor_id;sensor_type;location;lat;lon;timestamp;P1;durP1;ratioP1;P2;durP2;ratioP2
37943;SDS011;23767;42.024;23.086;2023-03-08T00:01:22;9.30;;;5.32;;
37943;SDS011;23767;42.024;23.086;2023-03-08T00:03:52;9.00;;;5.70;;
37943;SDS011;23767;42.024;23.086;2023-03-08T00:06:18;9.65;;;5.35;;
37943;SDS011;23767;42.024;23.086;2023-03-08T00:08:45;8.85;;;5.03;;
37943;SDS011;23767;42.024;23.086;2023-03-08T00:11:12;9.60;;;5.15;;
37943;SDS011;23767;42.024;23.086;2023-03-08T00:13:39;8.93;;;5.35;;
37943;SDS011;23767;42.024;23.086;2023-03-08T00:16:06;8.40;;;5.20;;
37943;SDS011;23767;42.024;23.086;2023-03-08T00:18:33;8.20;;;4.88;;
37943;SDS011;23767;42.024;23.086;2023-03-08T00:21:03;8.65;;;5.13;;
37943;SDS011;23767;42.024;23.086;2023-03-08T00:23:30;9.48;;;4.97;;
37943;SDS011;23767;42.024;23.086;2023-03-08T00:25:56;10.77;;;5.70;;
37943;SDS011;23767;42.024;23.086;2023-03-08T00:28:22;8.38;;;5.20;;
37943;SDS011;23767;42.024;23.086;2023-03-08T00:30:58;8.23;;;4.97;;
37943;SDS011;23767;42.024;23.086;2023-03-08T00:33:24;11.93;;;5.50;;
37943;SDS011;23767;42.024;23.086;2023-03-08T00:35:57;9.25;;;5.50;;
37943;SDS011;23767;42.024;23.086;2023-03-08T00:38:24;9.10;;;5.70;;
37943;SDS011;23767;42.024;23.086;2023-03-08T00:40:50;8.05;;;5.38;;
37943;SDS011;23767;42.024;23.086;2023-03-08T00:43:16;11.43;;;6.05;;
37943;SDS011;23767;42.024;23.086;2023-03-08T00:45:42;12.70;;;5.97;;
37943;SDS011;23767;42.024;23.086;2023-03-08T00:48:08;10.43;;;5.65;;
37943;SDS011;23767;42.024;23.086;2023-03-08T00:50:34;10.88;;;5.50;;
37943;SDS011;23767;42.024;23.086;2023-03-08T00:53:00;9.82;;;5.20;;
37943;SDS011;23767;42.024;23.086;2023-03-08T00:55:26;10.73;;;4.93;;
37943;SDS011;23767;42.024;23.086;2023-03-08T00:57:52;7.95;;;4.00;;
37943;SDS011;23767;42.024;23.086;2023-03-08T01:00:18;9.60;;;3.95;;
37943;SDS011;23767;42.024;23.086;2023-03-08T01:02:44;6.25;;;3.22;;
37943;SDS011;23767;42.024;23.086;2023-03-08T01:05:10;8.57;;;3.10;;
37943;SDS011;23767;42.024;23.086;2023-03-08T01:07:37;6.07;;;3.22;;
37943;SDS011;23767;42.024;23.086;2023-03-08T01:10:03;6.85;;;3.13;;
37943;SDS011;23767;42.024;23.086;2023-03-08T01:12:33;7.35;;;3.70;;
37943;SDS011;23767;42.024;23.086;2023-03-08T01:15:00;8.82;;;4.07;;
37943;SDS011;23767;42.024;23.086;2023-03-08T01:17:26;7.15;;;3.55;;
37943;SDS011;23767;42.024;23.086;2023-03-08T01:19:52;9.80;;;3.40;;
37943;SDS011;23767;42.024;23.086;2023-03-08T01:22:18;6.65;;;3.47;;
37943;SDS011;23767;42.024;23.086;2023-03-08T01:24:44;7.15;;;3.75;;
37943;SDS011;23767;42.024;23.086;2023-03-08T01:27:10;8.73;;;3.85;;
37943;SDS011;23767;42.024;23.086;2023-03-08T01:29:37;7.60;;;3.63;;
37943;SDS011;23767;42.024;23.086;2023-03-08T01:32:03;9.55;;;3.97;;
37943;SDS011;23767;42.024;23.086;2023-03-08T01:34:29;5.95;;;3.25;;
37943;SDS011;23767;42.024;23.086;2023-03-08T01:36:55;9.23;;;3.80;;
37943;SDS011;23767;42.024;23.086;2023-03-08T01:39:21;7.13;;;4.30;;
37943;SDS011;23767;42.024;23.086;2023-03-08T01:41:47;7.78;;;4.30;;
37943;SDS011;23767;42.024;23.086;2023-03-08T01:44:14;8.30;;;4.60;;
37943;SDS011;23767;42.024;23.086;2023-03-08T01:46:40;7.32;;;4.22;;
37943;SDS011;23767;42.024;23.086;2023-03-08T01:49:13;7.63;;;4.82;;
37943;SDS011;23767;42.024;23.086;2023-03-08T01:51:48;7.47;;;4.07;;
37943;SDS011;23767;42.024;23.086;2023-03-08T01:54:18;7.97;;;3.50;;
37943;SDS011;23767;42.024;23.086;2023-03-08T01:56:46;6.85;;;4.05;;
37943;SDS011;23767;42.024;23.086;2023-03-08T01:59:12;7.68;;;3.63;;
37943;SDS011;23767;42.024;23.086;2023-03-08T02:01:39;6.55;;;3.60;;
37943;SDS011;23767;42.024;23.086;2023-03-08T02:04:05;7.55;;;3.65;;
37943;SDS011;23767;42.024;23.086;2023-03-08T02:06:31;7.35;;;4.00;;
37943;SDS011;23767;42.024;23.086;2023-03-08T02:08:58;7.80;;;4.47;;
37943;SDS011;23767;42.024;23.086;2023-03-08T02:11:28;7.90;;;3.72;;
37943;SDS011;23767;42.024;23.086;2023-03-08T02:13:54;7.10;;;3.40;;
37943;SDS011;23767;42.024;23.086;2023-03-08T02:16:20;15.75;;;8.57;;
37943;SDS011;23767;42.024;23.086;2023-03-08T02:21:22;8.68;;;4.40;;
37943;SDS011;23767;42.024;23.086;2023-03-08T02:23:48;7.50;;;4.28;;
37943;SDS011;23767;42.024;23.086;2023-03-08T02:26:14;12.15;;;5.97;;
37943;SDS011;23767;42.024;23.086;2023-03-08T02:28:41;9.23;;;5.55;;
37943;SDS011;23767;42.024;23.086;2023-03-08T02:31:07;9.48;;;5.90;;
37943;SDS011;23767;42.024;23.086;2023-03-08T02:33:33;11.23;;;5.75;;
37943;SDS011;23767;42.024;23.086;2023-03-08T02:36:02;9.27;;;4.97;;
37943;SDS011;23767;42.024;23.086;2023-03-08T02:38:29;9.18;;;5.53;;
37943;SDS011;23767;42.024;23.086;2023-03-08T02:40:55;9.63;;;4.95;;
37943;SDS011;23767;42.024;23.086;2023-03-08T02:43:21;9.23;;;4.85;;
37943;SDS011;23767;42.024;23.086;2023-03-08T02:45:47;7.90;;;4.72;;
37943;SDS011;23767;42.024;23.086;2023-03-08T02:48:13;9.65;;;4.75;;
37943;SDS011;23767;42.024;23.086;2023-03-08T02:50:40;8.00;;;4.72;;
37943;SDS011;23767;42.024;23.086;2023-03-08T02:53:06;10.02;;;5.70;;
37943;SDS011;23767;42.024;23.086;2023-03-08T02:55:32;9.25;;;5.35;;
37943;SDS011;23767;42.024;23.086;2023-03-08T02:58:03;10.13;;;4.63;;
37943;SDS011;23767;42.024;23.086;2023-03-08T03:00:29;9.38;;;4.35;;
37943;SDS011;23767;42.024;23.086;2023-03-08T03:02:55;6.65;;;4.35;;
37943;SDS011;23767;42.024;23.086;2023-03-08T03:05:21;8.70;;;4.18;;
37943;SDS011;23767;42.024;23.086;2023-03-08T03:07:47;6.07;;;3.35;;
37943;SDS011;23767;42.024;23.086;2023-03-08T03:10:13;9.25;;;4.40;;
37943;SDS011;23767;42.024;23.086;2023-03-08T03:12:39;10.25;;;4.10;;
37943;SDS011;23767;42.024;23.086;2023-03-08T03:15:06;7.75;;;3.78;;
37943;SDS011;23767;42.024;23.086;2023-03-08T03:17:33;9.82;;;4.30;;
37943;SDS011;23767;42.024;23.086;2023-03-08T03:20:00;10.45;;;4.15;;
37943;SDS011;23767;42.024;23.086;2023-03-08T03:22:26;14.95;;;6.32;;
37943;SDS011;23767;42.024;23.086;2023-03-08T03:24:52;7.93;;;4.43;;
37943;SDS011;23767;42.024;23.086;2023-03-08T03:27:19;9.02;;;4.10;;
37943;SDS011;23767;42.024;23.086;2023-03-08T03:29:45;8.40;;;3.70;;
37943;SDS011;23767;42.024;23.086;2023-03-08T03:32:11;11.05;;;4.53;;
37943;SDS011;23767;42.024;23.086;2023-03-08T03:34:37;9.80;;;4.38;;
37943;SDS011;23767;42.024;23.086;2023-03-08T03:37:03;9.25;;;4.65;;
37943;SDS011;23767;42.024;23.086;2023-03-08T03:39:29;11.23;;;4.82;;
37943;SDS011;23767;42.024;23.086;2023-03-08T03:41:58;9.73;;;4.57;;
37943;SDS011;23767;42.024;23.086;2023-03-08T03:44:25;7.65;;;3.90;;
37943;SDS011;23767;42.024;23.086;2023-03-08T03:46:53;8.93;;;4.30;;
37943;SDS011;23767;42.024;23.086;2023-03-08T03:49:19;6.40;;;3.37;;
37943;SDS011;23767;42.024;23.086;2023-03-08T03:51:45;8.23;;;4.07;;
37943;SDS011;23767;42.024;23.086;2023-03-08T03:54:11;9.83;;;4.87;;
37943;SDS011;23767;42.024;23.086;2023-03-08T03:56:37;8.77;;;4.97;;
37943;SDS011;23767;42.024;23.086;2023-03-08T03:59:03;11.52;;;4.90;;
37943;SDS011;23767;42.024;23.086;2023-03-08T04:01:29;12.35;;;6.70;;
37943;SDS011;23767;42.024;23.086;2023-03-08T04:03:56;10.10;;;4.33;;
37943;SDS011;23767;42.024;23.086;2023-03-08T04:06:24;9.23;;;5.43;;
37943;SDS011;23767;42.024;23.086;2023-03-08T04:08:51;8.10;;;5.10;;
37943;SDS011;23767;42.024;23.086;2023-03-08T04:11:18;9.53;;;5.50;;
37943;SDS011;23767;42.024;23.086;2023-03-08T04:13:44;9.05;;;5.22;;
37943;SDS011;23767;42.024;23.086;2023-03-08T04:16:11;8.70;;;5.60;;
37943;SDS011;23767;42.024;23.086;2023-03-08T04:18:37;7.90;;;4.80;;
37943;SDS011;23767;42.024;23.086;2023-03-08T04:21:04;9.87;;;5.30;;
37943;SDS011;23767;42.024;23.086;2023-03-08T04:23:30;10.23;;;5.47;;
37943;SDS011;23767;42.024;23.086;2023-03-08T04:25:56;10.52;;;5.90;;
37943;SDS011;23767;42.024;23.086;2023-03-08T04:28:23;10.27;;;5.72;;
37943;SDS011;23767;42.024;23.086;2023-03-08T04:30:49;8.52;;;5.95;;
37943;SDS011;23767;42.024;23.086;2023-03-08T04:33:15;9.57;;;4.90;;
37943;SDS011;23767;42.024;23.086;2023-03-08T04:35:41;11.82;;;5.40;;
37943;SDS011;23767;42.024;23.086;2023-03-08T04:38:07;13.80;;;7.88;;
37943;SDS011;23767;42.024;23.086;2023-03-08T04:40:33;13.68;;;7.35;;
37943;SDS011;23767;42.024;23.086;2023-03-08T04:43:19;35.50;;;23.55;;
37943;SDS011;23767;42.024;23.086;2023-03-08T04:45:45;35.03;;;24.65;;
37943;SDS011;23767;42.024;23.086;2023-03-08T04:48:11;34.55;;;22.30;;
37943;SDS011;23767;42.024;23.086;2023-03-08T04:50:37;15.45;;;9.68;;
37943;SDS011;23767;42.024;23.086;2023-03-08T04:53:06;34.77;;;25.57;;
37943;SDS011;23767;42.024;23.086;2023-03-08T04:55:32;15.73;;;9.63;;
37943;SDS011;23767;42.024;23.086;2023-03-08T04:57:58;11.07;;;6.77;;
37943;SDS011;23767;42.024;23.086;2023-03-08T05:03:00;9.77;;;4.90;;
37943;SDS011;23767;42.024;23.086;2023-03-08T05:05:26;9.70;;;4.80;;
37943;SDS011;23767;42.024;23.086;2023-03-08T05:07:52;10.60;;;6.07;;
37943;SDS011;23767;42.024;23.086;2023-03-08T05:10:18;9.10;;;5.47;;
37943;SDS011;23767;42.024;23.086;2023-03-08T05:12:44;8.20;;;4.70;;
37943;SDS011;23767;42.024;23.086;2023-03-08T05:15:10;12.63;;;6.60;;
37943;SDS011;23767;42.024;23.086;2023-03-08T05:17:36;12.20;;;6.40;;
37943;SDS011;23767;42.024;23.086;2023-03-08T05:20:02;18.93;;;8.30;;
37943;SDS011;23767;42.024;23.086;2023-03-08T05:22:28;15.33;;;8.13;;
37943;SDS011;23767;42.024;23.086;2023-03-08T05:24:54;16.08;;;7.68;;
37943;SDS011;23767;42.024;23.086;2023-03-08T05:27:20;18.03;;;8.17;;
37943;SDS011;23767;42.024;23.086;2023-03-08T05:29:46;14.73;;;7.40;;
37943;SDS011;23767;42.024;23.086;2023-03-08T05:32:13;14.47;;;8.03;;
37943;SDS011;23767;42.024;23.086;2023-03-08T05:34:39;15.50;;;7.60;;
37943;SDS011;23767;42.024;23.086;2023-03-08T05:37:05;14.55;;;7.47;;
37943;SDS011;23767;42.024;23.086;2023-03-08T05:39:31;14.88;;;8.18;;
37943;SDS011;23767;42.024;23.086;2023-03-08T05:41:57;12.10;;;7.07;;
37943;SDS011;23767;42.024;23.086;2023-03-08T05:44:23;14.85;;;8.02;;
37943;SDS011;23767;42.024;23.086;2023-03-08T05:46:49;12.68;;;7.80;;
37943;SDS011;23767;42.024;23.086;2023-03-08T05:49:15;9.85;;;6.05;;
37943;SDS011;23767;42.024;23.086;2023-03-08T05:51:41;18.17;;;6.72;;
37943;SDS011;23767;42.024;23.086;2023-03-08T05:54:07;15.75;;;7.45;;
37943;SDS011;23767;42.024;23.086;2023-03-08T05:56:33;19.02;;;7.03;;
37943;SDS011;23767;42.024;23.086;2023-03-08T05:58:59;15.73;;;7.30;;
37943;SDS011;23767;42.024;23.086;2023-03-08T06:01:26;13.75;;;7.43;;
37943;SDS011;23767;42.024;23.086;2023-03-08T06:03:53;18.30;;;8.98;;
37943;SDS011;23767;42.024;23.086;2023-03-08T06:06:19;19.67;;;9.32;;
37943;SDS011;23767;42.024;23.086;2023-03-08T06:08:46;20.17;;;9.32;;
37943;SDS011;23767;42.024;23.086;2023-03-08T06:11:12;21.23;;;11.52;;
37943;SDS011;23767;42.024;23.086;2023-03-08T06:13:38;18.70;;;10.85;;
37943;SDS011;23767;42.024;23.086;2023-03-08T06:16:05;20.60;;;10.77;;
37943;SDS011;23767;42.024;23.086;2023-03-08T06:18:31;23.02;;;10.63;;
37943;SDS011;23767;42.024;23.086;2023-03-08T06:23:24;17.38;;;9.80;;
37943;SDS011;23767;42.024;23.086;2023-03-08T06:25:50;13.38;;;9.70;;
37943;SDS011;23767;42.024;23.086;2023-03-08T06:28:16;15.50;;;9.27;;
37943;SDS011;23767;42.024;23.086;2023-03-08T06:30:42;17.90;;;10.75;;
37943;SDS011;23767;42.024;23.086;2023-03-08T06:33:08;21.38;;;12.50;;
37943;SDS011;23767;42.024;23.086;2023-03-08T06:35:34;22.25;;;10.88;;
37943;SDS011;23767;42.024;23.086;2023-03-08T06:38:00;18.40;;;10.57;;
37943;SDS011;23767;42.024;23.086;2023-03-08T06:40:26;19.33;;;10.43;;
37943;SDS011;23767;42.024;23.086;2023-03-08T06:42:52;17.48;;;10.05;;
37943;SDS011;23767;42.024;23.086;2023-03-08T06:45:18;14.80;;;9.52;;
37943;SDS011;23767;42.024;23.086;2023-03-08T06:47:44;15.18;;;8.32;;
37943;SDS011;23767;42.024;23.086;2023-03-08T06:50:10;23.42;;;9.45;;
37943;SDS011;23767;42.024;23.086;2023-03-08T06:52:36;15.75;;;9.43;;
37943;SDS011;23767;42.024;23.086;2023-03-08T06:55:03;14.90;;;9.05;;
37943;SDS011;23767;42.024;23.086;2023-03-08T06:57:29;13.38;;;8.23;;
37943;SDS011;23767;42.024;23.086;2023-03-08T06:59:55;15.65;;;8.18;;
37943;SDS011;23767;42.024;23.086;2023-03-08T07:02:21;12.68;;;7.97;;
37943;SDS011;23767;42.024;23.086;2023-03-08T07:04:47;18.05;;;9.52;;
37943;SDS011;23767;42.024;23.086;2023-03-08T07:07:13;16.23;;;8.52;;
37943;SDS011;23767;42.024;23.086;2023-03-08T07:09:39;26.85;;;10.43;;
37943;SDS011;23767;42.024;23.086;2023-03-08T07:12:05;15.73;;;9.35;;
37943;SDS011;23767;42.024;23.086;2023-03-08T07:14:31;16.80;;;9.52;;
37943;SDS011;23767;42.024;23.086;2023-03-08T07:16:57;15.50;;;9.30;;
37943;SDS011;23767;42.024;23.086;2023-03-08T07:19:23;16.50;;;10.32;;
37943;SDS011;23767;42.024;23.086;2023-03-08T07:21:50;15.18;;;9.45;;
37943;SDS011;23767;42.024;23.086;2023-03-08T07:24:16;17.98;;;9.98;;
37943;SDS011;23767;42.024;23.086;2023-03-08T07:26:42;12.90;;;9.55;;
37943;SDS011;23767;42.024;23.086;2023-03-08T07:29:08;13.98;;;9.13;;
37943;SDS011;23767;42.024;23.086;2023-03-08T07:31:34;16.50;;;9.48;;
37943;SDS011;23767;42.024;23.086;2023-03-08T07:34:01;19.25;;;10.55;;
37943;SDS011;23767;42.024;23.086;2023-03-08T07:36:27;15.75;;;10.48;;
37943;SDS011;23767;42.024;23.086;2023-03-08T07:38:54;18.38;;;10.18;;
37943;SDS011;23767;42.024;23.086;2023-03-08T07:41:20;18.67;;;10.63;;
37943;SDS011;23767;42.024;23.086;2023-03-08T07:43:46;17.95;;;10.57;;
37943;SDS011;23767;42.024;23.086;2023-03-08T07:46:12;17.00;;;10.68;;
37943;SDS011;23767;42.024;23.086;2023-03-08T07:48:38;18.50;;;10.50;;
37943;SDS011;23767;42.024;23.086;2023-03-08T07:51:06;15.63;;;9.63;;
37943;SDS011;23767;42.024;23.086;2023-03-08T07:53:34;17.40;;;9.30;;
37943;SDS011;23767;42.024;23.086;2023-03-08T07:56:00;14.10;;;9.40;;
37943;SDS011;23767;42.024;23.086;2023-03-08T07:58:26;12.27;;;8.52;;
37943;SDS011;23767;42.024;23.086;2023-03-08T08:00:52;14.38;;;9.30;;
37943;SDS011;23767;42.024;23.086;2023-03-08T08:03:19;15.27;;;8.35;;
37943;SDS011;23767;42.024;23.086;2023-03-08T08:05:45;13.95;;;8.95;;
37943;SDS011;23767;42.024;23.086;2023-03-08T08:08:11;14.75;;;9.13;;
37943;SDS011;23767;42.024;23.086;2023-03-08T08:10:41;18.33;;;9.00;;
37943;SDS011;23767;42.024;23.086;2023-03-08T08:13:07;12.60;;;8.20;;
37943;SDS011;23767;42.024;23.086;2023-03-08T08:15:34;10.75;;;7.88;;
37943;SDS011;23767;42.024;23.086;2023-03-08T08:18:00;13.27;;;8.85;;
37943;SDS011;23767;42.024;23.086;2023-03-08T08:20:26;14.60;;;9.07;;
37943;SDS011;23767;42.024;23.086;2023-03-08T08:22:52;12.63;;;8.05;;
37943;SDS011;23767;42.024;23.086;2023-03-08T08:25:19;14.07;;;8.00;;
37943;SDS011;23767;42.024;23.086;2023-03-08T08:27:45;16.15;;;9.20;;
37943;SDS011;23767;42.024;23.086;2023-03-08T08:30:12;18.77;;;9.55;;
37943;SDS011;23767;42.024;23.086;2023-03-08T08:32:38;16.90;;;9.48;;
37943;SDS011;23767;42.024;23.086;2023-03-08T08:35:04;14.52;;;8.65;;
37943;SDS011;23767;42.024;23.086;2023-03-08T08:37:30;19.52;;;8.98;;
37943;SDS011;23767;42.024;23.086;2023-03-08T08:39:57;15.52;;;8.25;;
37943;SDS011;23767;42.024;23.086;2023-03-08T08:42:23;14.63;;;7.43;;
37943;SDS011;23767;42.024;23.086;2023-03-08T08:44:51;14.95;;;8.82;;
37943;SDS011;23767;42.024;23.086;2023-03-08T08:47:17;14.73;;;8.30;;
37943;SDS011;23767;42.024;23.086;2023-03-08T08:49:43;16.23;;;8.20;;
37943;SDS011;23767;42.024;23.086;2023-03-08T08:52:09;11.27;;;7.90;;
37943;SDS011;23767;42.024;23.086;2023-03-08T08:54:35;10.90;;;7.35;;
37943;SDS011;23767;42.024;23.086;2023-03-08T08:57:04;11.75;;;7.95;;
37943;SDS011;23767;42.024;23.086;2023-03-08T08:59:30;13.25;;;7.35;;
37943;SDS011;23767;42.024;23.086;2023-03-08T09:01:56;12.40;;;7.93;;
37943;SDS011;23767;42.024;23.086;2023-03-08T09:04:22;16.33;;;8.10;;
37943;SDS011;23767;42.024;23.086;2023-03-08T09:06:48;11.85;;;7.72;;
37943;SDS011;23767;42.024;23.086;2023-03-08T09:09:16;14.38;;;7.22;;
37943;SDS011;23767;42.024;23.086;2023-03-08T09:11:42;12.07;;;6.53;;
37943;SDS011;23767;42.024;23.086;2023-03-08T09:14:08;9.90;;;5.40;;
37943;SDS011;23767;42.024;23.086;2023-03-08T09:16:34;10.90;;;5.72;;
37943;SDS011;23767;42.024;23.086;2023-03-08T09:19:01;10.23;;;6.40;;
37943;SDS011;23767;42.024;23.086;2023-03-08T09:21:27;9.43;;;6.28;;
37943;SDS011;23767;42.024;23.086;2023-03-08T09:23:54;13.93;;;7.30;;
37943;SDS011;23767;42.024;23.086;2023-03-08T09:26:21;14.57;;;7.10;;
37943;SDS011;23767;42.024;23.086;2023-03-08T09:28:47;11.00;;;5.95;;
37943;SDS011;23767;42.024;23.086;2023-03-08T09:31:14;10.90;;;6.00;;
37943;SDS011;23767;42.024;23.086;2023-03-08T09:33:41;8.65;;;5.30;;
37943;SDS011;23767;42.024;23.086;2023-03-08T09:36:07;8.55;;;4.32;;
37943;SDS011;23767;42.024;23.086;2023-03-08T09:38:34;8.75;;;5.35;;
37943;SDS011;23767;42.024;23.086;2023-03-08T09:43:42;9.82;;;5.57;;
37943;SDS011;23767;42.024;23.086;2023-03-08T09:46:10;9.00;;;4.90;;
37943;SDS011;23767;42.024;23.086;2023-03-08T09:48:37;10.07;;;5.40;;
37943;SDS011;23767;42.024;23.086;2023-03-08T09:51:05;9.32;;;5.32;;
37943;SDS011;23767;42.024;23.086;2023-03-08T09:53:38;11.68;;;5.47;;
37943;SDS011;23767;42.024;23.086;2023-03-08T09:56:28;12.32;;;5.07;;
37943;SDS011;23767;42.024;23.086;2023-03-08T09:58:57;14.40;;;5.55;;
37943;SDS011;23767;42.024;23.086;2023-03-08T10:09:34;7.75;;;3.90;;
37943;SDS011;23767;42.024;23.086;2023-03-08T10:14:47;6.90;;;3.03;;
37943;SDS011;23767;42.024;23.086;2023-03-08T10:17:19;7.45;;;3.35;;
37943;SDS011;23767;42.024;23.086;2023-03-08T10:19:47;7.13;;;2.78;;
37943;SDS011;23767;42.024;23.086;2023-03-08T10:22:32;5.85;;;2.20;;
37943;SDS011;23767;42.024;23.086;2023-03-08T10:27:50;5.75;;;1.92;;
37943;SDS011;23767;42.024;23.086;2023-03-08T10:30:17;3.42;;;1.67;;
37943;SDS011;23767;42.024;23.086;2023-03-08T10:32:46;5.07;;;1.92;;
37943;SDS011;23767;42.024;23.086;2023-03-08T10:35:12;3.35;;;1.40;;
37943;SDS011;23767;42.024;23.086;2023-03-08T10:37:38;3.70;;;1.55;;
37943;SDS011;23767;42.024;23.086;2023-03-08T10:40:06;3.40;;;1.42;;
37943;SDS011;23767;42.024;23.086;2023-03-08T10:42:33;2.90;;;1.13;;
37943;SDS011;23767;42.024;23.086;2023-03-08T10:45:01;3.75;;;1.80;;
37943;SDS011;23767;42.024;23.086;2023-03-08T10:47:33;3.55;;;1.73;;
37943;SDS011;23767;42.024;23.086;2023-03-08T10:50:13;5.60;;;1.73;;
37943;SDS011;23767;42.024;23.086;2023-03-08T10:52:40;3.25;;;1.50;;
37943;SDS011;23767;42.024;23.086;2023-03-08T10:57:34;2.92;;;1.50;;
37943;SDS011;23767;42.024;23.086;2023-03-08T11:00:20;3.13;;;1.63;;
37943;SDS011;23767;42.024;23.086;2023-03-08T11:02:48;3.85;;;1.50;;
37943;SDS011;23767;42.024;23.086;2023-03-08T11:05:18;3.28;;;1.40;;
37943;SDS011;23767;42.024;23.086;2023-03-08T11:07:51;3.63;;;1.50;;
37943;SDS011;23767;42.024;23.086;2023-03-08T11:10:18;3.42;;;1.50;;
37943;SDS011;23767;42.024;23.086;2023-03-08T11:12:45;5.32;;;1.70;;
37943;SDS011;23767;42.024;23.086;2023-03-08T11:15:12;4.60;;;1.42;;
37943;SDS011;23767;42.024;23.086;2023-03-08T11:17:38;3.05;;;1.50;;
37943;SDS011;23767;42.024;23.086;2023-03-08T11:22:48;4.88;;;1.52;;
37943;SDS011;23767;42.024;23.086;2023-03-08T11:48:16;4.43;;;1.50;;
37943;SDS011;23767;42.024;23.086;2023-03-08T11:50:48;3.08;;;1.52;;
37943;SDS011;23767;42.024;23.086;2023-03-08T11:53:32;2.90;;;1.33;;
37943;SDS011;23767;42.024;23.086;2023-03-08T11:56:20;3.38;;;1.52;;
37943;SDS011;23767;42.024;23.086;2023-03-08T11:58:52;3.03;;;1.30;;
37943;SDS011;23767;42.024;23.086;2023-03-08T12:01:21;5.35;;;1.75;;
37943;SDS011;23767;42.024;23.086;2023-03-08T12:03:50;6.63;;;1.60;;
37943;SDS011;23767;42.024;23.086;2023-03-08T12:06:32;3.25;;;1.30;;
37943;SDS011;23767;42.024;23.086;2023-03-08T12:09:01;3.85;;;1.85;;
37943;SDS011;23767;42.024;23.086;2023-03-08T12:11:37;3.53;;;1.50;;
37943;SDS011;23767;42.024;23.086;2023-03-08T12:16:36;4.22;;;1.77;;
37943;SDS011;23767;42.024;23.086;2023-03-08T12:19:25;3.03;;;1.42;;
37943;SDS011;23767;42.024;23.086;2023-03-08T12:26:50;5.13;;;1.48;;
37943;SDS011;23767;42.024;23.086;2023-03-08T12:32:14;4.97;;;1.60;;
37943;SDS011;23767;42.024;23.086;2023-03-08T12:34:42;4.15;;;1.38;;
37943;SDS011;23767;42.024;23.086;2023-03-08T12:37:19;4.30;;;1.60;;
37943;SDS011;23767;42.024;23.086;2023-03-08T12:39:53;3.45;;;1.60;;
37943;SDS011;23767;42.024;23.086;2023-03-08T12:42:33;5.40;;;1.52;;
37943;SDS011;23767;42.024;23.086;2023-03-08T12:47:35;3.25;;;1.30;;
37943;SDS011;23767;42.024;23.086;2023-03-08T12:50:08;4.80;;;1.75;;
37943;SDS011;23767;42.024;23.086;2023-03-08T12:52:35;4.13;;;1.30;;
37943;SDS011;23767;42.024;23.086;2023-03-08T12:55:03;4.28;;;1.65;;
37943;SDS011;23767;42.024;23.086;2023-03-08T12:57:34;3.65;;;1.42;;
37943;SDS011;23767;42.024;23.086;2023-03-08T13:00:19;3.50;;;1.50;;
37943;SDS011;23767;42.024;23.086;2023-03-08T13:02:57;3.38;;;1.40;;
37943;SDS011;23767;42.024;23.086;2023-03-08T13:10:23;3.83;;;1.50;;
37943;SDS011;23767;42.024;23.086;2023-03-08T13:15:36;3.53;;;1.50;;
37943;SDS011;23767;42.024;23.086;2023-03-08T13:18:09;5.60;;;1.52;;
37943;SDS011;23767;42.024;23.086;2023-03-08T13:30:37;3.03;;;1.30;;
37943;SDS011;23767;42.024;23.086;2023-03-08T13:33:11;3.40;;;1.33;;
37943;SDS011;23767;42.024;23.086;2023-03-08T13:35:38;13.70;;;2.30;;
37943;SDS011;23767;42.024;23.086;2023-03-08T13:38:04;5.28;;;1.55;;
37943;SDS011;23767;42.024;23.086;2023-03-08T13:40:30;4.72;;;1.80;;
37943;SDS011;23767;42.024;23.086;2023-03-08T13:42:57;8.90;;;1.75;;
37943;SDS011;23767;42.024;23.086;2023-03-08T13:45:24;7.38;;;1.63;;
37943;SDS011;23767;42.024;23.086;2023-03-08T13:47:50;5.55;;;1.60;;
37943;SDS011;23767;42.024;23.086;2023-03-08T13:50:18;7.00;;;2.20;;
37943;SDS011;23767;42.024;23.086;2023-03-08T13:52:45;4.78;;;2.55;;
37943;SDS011;23767;42.024;23.086;2023-03-08T13:55:14;5.68;;;2.22;;
37943;SDS011;23767;42.024;23.086;2023-03-08T13:57:45;7.47;;;3.30;;
37943;SDS011;23767;42.024;23.086;2023-03-08T14:00:19;7.75;;;4.15;;
37943;SDS011;23767;42.024;23.086;2023-03-08T14:02:47;6.70;;;3.40;;
37943;SDS011;23767;42.024;23.086;2023-03-08T14:05:17;5.97;;;3.03;;
37943;SDS011;23767;42.024;23.086;2023-03-08T14:07:53;6.38;;;2.90;;
37943;SDS011;23767;42.024;23.086;2023-03-08T14:10:19;7.95;;;4.28;;
37943;SDS011;23767;42.024;23.086;2023-03-08T14:12:48;7.10;;;3.53;;
37943;SDS011;23767;42.024;23.086;2023-03-08T14:15:14;5.25;;;1.90;;
37943;SDS011;23767;42.024;23.086;2023-03-08T14:17:41;7.88;;;3.25;;
37943;SDS011;23767;42.024;23.086;2023-03-08T14:20:20;8.07;;;2.75;;
37943;SDS011;23767;42.024;23.086;2023-03-08T14:22:48;5.18;;;2.05;;
37943;SDS011;23767;42.024;23.086;2023-03-08T14:25:22;5.20;;;2.03;;
37943;SDS011;23767;42.024;23.086;2023-03-08T14:27:48;6.35;;;2.35;;
37943;SDS011;23767;42.024;23.086;2023-03-08T14:30:16;9.27;;;2.17;;
37943;SDS011;23767;42.024;23.086;2023-03-08T14:32:54;6.30;;;2.22;;
37943;SDS011;23767;42.024;23.086;2023-03-08T14:35:24;6.38;;;2.10;;
37943;SDS011;23767;42.024;23.086;2023-03-08T14:37:51;7.43;;;2.20;;
37943;SDS011;23767;42.024;23.086;2023-03-08T14:42:47;4.45;;;2.22;;
37943;SDS011;23767;42.024;23.086;2023-03-08T14:45:21;4.35;;;2.08;;
37943;SDS011;23767;42.024;23.086;2023-03-08T14:50:32;4.03;;;2.08;;
37943;SDS011;23767;42.024;23.086;2023-03-08T14:52:59;5.28;;;2.38;;
37943;SDS011;23767;42.024;23.086;2023-03-08T14:57:53;5.55;;;2.75;;
37943;SDS011;23767;42.024;23.086;2023-03-08T15:00:20;9.52;;;3.00;;
37943;SDS011;23767;42.024;23.086;2023-03-08T15:02:46;5.20;;;2.50;;
37943;SDS011;23767;42.024;23.086;2023-03-08T15:05:16;7.32;;;2.30;;
37943;SDS011;23767;42.024;23.086;2023-03-08T15:07:42;10.07;;;2.33;;
37943;SDS011;23767;42.024;23.086;2023-03-08T15:10:28;5.75;;;2.83;;
37943;SDS011;23767;42.024;23.086;2023-03-08T15:12:55;5.10;;;2.42;;
37943;SDS011;23767;42.024;23.086;2023-03-08T15:15:21;9.80;;;2.70;;
37943;SDS011;23767;42.024;23.086;2023-03-08T15:17:47;5.13;;;2.20;;
37943;SDS011;23767;42.024;23.086;2023-03-08T15:20:14;5.68;;;2.97;;
37943;SDS011;23767;42.024;23.086;2023-03-08T15:22:41;11.13;;;2.83;;
37943;SDS011;23767;42.024;23.086;2023-03-08T15:25:11;9.70;;;2.53;;
37943;SDS011;23767;42.024;23.086;2023-03-08T15:27:38;5.43;;;2.78;;
37943;SDS011;23767;42.024;23.086;2023-03-08T15:30:04;7.65;;;2.72;;
37943;SDS011;23767;42.024;23.086;2023-03-08T15:32:30;8.52;;;2.70;;
37943;SDS011;23767;42.024;23.086;2023-03-08T15:34:56;9.30;;;2.85;;
37943;SDS011;23767;42.024;23.086;2023-03-08T15:37:22;7.38;;;3.35;;
37943;SDS011;23767;42.024;23.086;2023-03-08T15:39:48;10.93;;;7.03;;
37943;SDS011;23767;42.024;23.086;2023-03-08T15:42:14;28.27;;;12.70;;
37943;SDS011;23767;42.024;23.086;2023-03-08T15:44:40;7.80;;;3.90;;
37943;SDS011;23767;42.024;23.086;2023-03-08T15:47:07;6.70;;;3.17;;
37943;SDS011;23767;42.024;23.086;2023-03-08T15:49:34;7.18;;;3.08;;
37943;SDS011;23767;42.024;23.086;2023-03-08T15:52:00;6.03;;;3.05;;
37943;SDS011;23767;42.024;23.086;2023-03-08T15:54:26;5.07;;;2.35;;
37943;SDS011;23767;42.024;23.086;2023-03-08T15:56:52;7.10;;;2.58;;
37943;SDS011;23767;42.024;23.086;2023-03-08T15:59:18;5.70;;;2.72;;
37943;SDS011;23767;42.024;23.086;2023-03-08T16:01:44;6.05;;;2.47;;